CheckWX is a tool to help pilots better visualize weather data.  It is not intended as a substitute for an official pre-flight weather briefing.

07:36:34 UTC

KIZG METAR
Eastern Slopes Regional Airport
Fryeburg, Maine, USA
Current

43 mins ago

KIZG 120654Z AUTO 00000KT 10SM SCT017 BKN024 OVC038 23/22 A2957 RMK AO2 SLP012 T02330217
Observed
Jul-12 @ 06:54 UTC
Visibility
10 SM
Flight Rules
MVFR
Cloud Levels
  • Scattered at 1,700' AGL
  • Broken at 2,400' AGL
  • Overcast at 3,800' AGL
Temperature
23°C / 73°F
Dewpoint
22°C / 72°F
Humidity
94%
Altimeter
29.57" Hg
Pressure
1001.32 hPa
Previous

60 mins ago

KIZG 120637Z AUTO 00000KT 10SM SCT017 BKN023 BKN031 23/22 A2958 RMK AO2 T02330217
Observed
Jul-12 @ 06:37 UTC
Visibility
10 SM
Flight Rules
MVFR
Cloud Levels
  • Scattered at 1,700' AGL
  • Broken at 2,300' AGL
  • Broken at 3,100' AGL
Temperature
23°C / 73°F
Dewpoint
22°C / 72°F
Humidity
94%
Altimeter
29.58" Hg
Pressure
1001.72 hPa
Previous

2 hours ago

KIZG 120554Z AUTO 10005KT 10SM FEW046 FEW055 BKN110 23/22 A2959 RMK AO2 SLP018 T02330222 10256 20233 58017
Observed
Jul-12 @ 05:54 UTC
Wind
  • 100° at 5 KTS
Visibility
10 SM
Flight Rules
VFR
Cloud Levels
  • Few at 4,600' AGL
  • Few at 5,500' AGL
  • Broken at 11,000' AGL
Temperature
23°C / 73°F
Dewpoint
22°C / 72°F
Humidity
94%
Altimeter
29.59" Hg
Pressure
1002.02 hPa